sensor_id;sensor_type;location;lat;lon;timestamp;temperature;humidity
51765;DHT22;37835;53.256;6.456;2023-04-03T00:02:09;2.00;99.90
51765;DHT22;37835;53.256;6.456;2023-04-03T00:04:35;2.00;99.90
51765;DHT22;37835;53.256;6.456;2023-04-03T00:07:00;2.00;99.90
51765;DHT22;37835;53.256;6.456;2023-04-03T00:09:26;2.00;99.90
51765;DHT22;37835;53.256;6.456;2023-04-03T00:11:51;1.90;99.90
51765;DHT22;37835;53.256;6.456;2023-04-03T00:14:17;1.90;99.90
51765;DHT22;37835;53.256;6.456;2023-04-03T00:16:43;1.90;99.90
51765;DHT22;37835;53.256;6.456;2023-04-03T00:19:08;1.90;99.90
51765;DHT22;37835;53.256;6.456;2023-04-03T00:21:37;1.80;99.90
51765;DHT22;37835;53.256;6.456;2023-04-03T00:24:03;1.80;99.90
51765;DHT22;37835;53.256;6.456;2023-04-03T00:26:28;1.80;99.90
51765;DHT22;37835;53.256;6.456;2023-04-03T00:28:54;1.80;99.90
51765;DHT22;37835;53.256;6.456;2023-04-03T00:31:19;1.70;99.90
51765;DHT22;37835;53.256;6.456;2023-04-03T00:33:45;1.70;99.90
51765;DHT22;37835;53.256;6.456;2023-04-03T00:36:12;1.70;99.90
51765;DHT22;37835;53.256;6.456;2023-04-03T00:38:38;1.70;99.90
51765;DHT22;37835;53.256;6.456;2023-04-03T00:41:04;1.60;99.90
51765;DHT22;37835;53.256;6.456;2023-04-03T00:43:30;1.60;99.90
51765;DHT22;37835;53.256;6.456;2023-04-03T00:45:57;1.60;99.90
51765;DHT22;37835;53.256;6.456;2023-04-03T00:48:31;1.60;99.90
51765;DHT22;37835;53.256;6.456;2023-04-03T00:50:58;1.60;99.90
51765;DHT22;37835;53.256;6.456;2023-04-03T00:53:31;1.50;99.90
51765;DHT22;37835;53.256;6.456;2023-04-03T00:55:59;1.50;99.90
51765;DHT22;37835;53.256;6.456;2023-04-03T00:58:33;1.50;99.90
51765;DHT22;37835;53.256;6.456;2023-04-03T01:01:06;1.40;99.90
51765;DHT22;37835;53.256;6.456;2023-04-03T01:03:33;1.50;99.90
51765;DHT22;37835;53.256;6.456;2023-04-03T01:05:59;1.40;99.90
51765;DHT22;37835;53.256;6.456;2023-04-03T01:08:25;1.40;99.90
51765;DHT22;37835;53.256;6.456;2023-04-03T01:10:50;1.40;99.90
51765;DHT22;37835;53.256;6.456;2023-04-03T01:13:29;1.30;99.90
51765;DHT22;37835;53.256;6.456;2023-04-03T01:15:56;1.30;99.90
51765;DHT22;37835;53.256;6.456;2023-04-03T01:18:24;1.30;99.90
51765;DHT22;37835;53.256;6.456;2023-04-03T01:24:11;1.30;99.90
51765;DHT22;37835;53.256;6.456;2023-04-03T01:26:28;1.30;99.90
51765;DHT22;37835;53.256;6.456;2023-04-03T01:28:54;1.20;99.90
51765;DHT22;37835;53.256;6.456;2023-04-03T01:31:31;1.20;99.90
51765;DHT22;37835;53.256;6.456;2023-04-03T01:33:57;2.60;99.90
51765;DHT22;37835;53.256;6.456;2023-04-03T01:36:25;1.20;99.90
51765;DHT22;37835;53.256;6.456;2023-04-03T01:38:52;1.20;99.90
51765;DHT22;37835;53.256;6.456;2023-04-03T01:41:18;1.20;99.90
51765;DHT22;37835;53.256;6.456;2023-04-03T01:43:43;1.20;99.90
51765;DHT22;37835;53.256;6.456;2023-04-03T01:46:09;1.10;99.90
51765;DHT22;37835;53.256;6.456;2023-04-03T01:48:35;1.10;99.90
51765;DHT22;37835;53.256;6.456;2023-04-03T01:51:01;1.10;99.90
51765;DHT22;37835;53.256;6.456;2023-04-03T01:53:26;1.10;99.90
51765;DHT22;37835;53.256;6.456;2023-04-03T01:55:52;1.10;99.90
51765;DHT22;37835;53.256;6.456;2023-04-03T01:58:17;1.10;99.90
51765;DHT22;37835;53.256;6.456;2023-04-03T02:00:43;1.10;99.90
51765;DHT22;37835;53.256;6.456;2023-04-03T02:03:08;1.00;99.90
51765;DHT22;37835;53.256;6.456;2023-04-03T02:05:34;1.00;99.90
51765;DHT22;37835;53.256;6.456;2023-04-03T02:08:00;1.70;99.90
51765;DHT22;37835;53.256;6.456;2023-04-03T02:10:25;1.00;99.90
51765;DHT22;37835;53.256;6.456;2023-04-03T02:12:51;1.00;99.90
51765;DHT22;37835;53.256;6.456;2023-04-03T02:15:17;1.00;99.90
51765;DHT22;37835;53.256;6.456;2023-04-03T02:17:43;0.90;99.90
51765;DHT22;37835;53.256;6.456;2023-04-03T02:20:09;0.90;99.90
51765;DHT22;37835;53.256;6.456;2023-04-03T02:22:35;1.00;99.90
51765;DHT22;37835;53.256;6.456;2023-04-03T02:25:01;0.90;99.90
51765;DHT22;37835;53.256;6.456;2023-04-03T02:27:27;0.90;99.90
51765;DHT22;37835;53.256;6.456;2023-04-03T02:29:52;0.90;99.90
51765;DHT22;37835;53.256;6.456;2023-04-03T02:32:18;0.90;99.90
51765;DHT22;37835;53.256;6.456;2023-04-03T02:34:44;0.90;99.90
51765;DHT22;37835;53.256;6.456;2023-04-03T02:37:10;0.90;99.90
51765;DHT22;37835;53.256;6.456;2023-04-03T02:39:35;0.90;99.90
51765;DHT22;37835;53.256;6.456;2023-04-03T02:42:01;0.90;99.90
51765;DHT22;37835;53.256;6.456;2023-04-03T02:44:26;0.90;99.90
51765;DHT22;37835;53.256;6.456;2023-04-03T02:46:52;0.60;99.90
51765;DHT22;37835;53.256;6.456;2023-04-03T02:49:17;1.60;99.90
51765;DHT22;37835;53.256;6.456;2023-04-03T02:51:43;0.80;99.90
51765;DHT22;37835;53.256;6.456;2023-04-03T02:54:09;0.80;99.90
51765;DHT22;37835;53.256;6.456;2023-04-03T02:56:35;0.80;99.90
51765;DHT22;37835;53.256;6.456;2023-04-03T02:59:00;0.80;99.90
51765;DHT22;37835;53.256;6.456;2023-04-03T03:01:26;0.80;99.90
51765;DHT22;37835;53.256;6.456;2023-04-03T03:03:56;0.20;99.90
51765;DHT22;37835;53.256;6.456;2023-04-03T03:06:22;0.70;99.90
51765;DHT22;37835;53.256;6.456;2023-04-03T03:08:48;0.70;99.90
51765;DHT22;37835;53.256;6.456;2023-04-03T03:11:13;0.70;99.90
51765;DHT22;37835;53.256;6.456;2023-04-03T03:13:39;0.70;99.90
51765;DHT22;37835;53.256;6.456;2023-04-03T03:16:06;0.70;99.90
51765;DHT22;37835;53.256;6.456;2023-04-03T03:18:32;0.70;99.90
51765;DHT22;37835;53.256;6.456;2023-04-03T03:20:59;0.70;99.90
51765;DHT22;37835;53.256;6.456;2023-04-03T03:23:27;0.70;99.90
51765;DHT22;37835;53.256;6.456;2023-04-03T03:26:03;0.70;99.90
51765;DHT22;37835;53.256;6.456;2023-04-03T03:28:29;0.60;99.90
51765;DHT22;37835;53.256;6.456;2023-04-03T03:30:56;0.80;99.90
51765;DHT22;37835;53.256;6.456;2023-04-03T03:33:21;0.60;99.90
51765;DHT22;37835;53.256;6.456;2023-04-03T03:35:47;0.60;99.90
51765;DHT22;37835;53.256;6.456;2023-04-03T03:38:12;0.60;99.90
51765;DHT22;37835;53.256;6.456;2023-04-03T03:40:38;0.60;99.90
51765;DHT22;37835;53.256;6.456;2023-04-03T03:43:04;0.60;99.90
51765;DHT22;37835;53.256;6.456;2023-04-03T03:45:30;0.50;99.90
51765;DHT22;37835;53.256;6.456;2023-04-03T03:47:56;0.70;99.90
51765;DHT22;37835;53.256;6.456;2023-04-03T03:50:22;0.60;99.90
51765;DHT22;37835;53.256;6.456;2023-04-03T03:52:47;0.40;99.90
51765;DHT22;37835;53.256;6.456;2023-04-03T03:55:13;0.50;99.90
51765;DHT22;37835;53.256;6.456;2023-04-03T03:57:38;0.40;99.90
51765;DHT22;37835;53.256;6.456;2023-04-03T04:00:04;0.30;99.90
51765;DHT22;37835;53.256;6.456;2023-04-03T04:02:30;0.30;99.90
51765;DHT22;37835;53.256;6.456;2023-04-03T04:04:56;0.50;99.90
51765;DHT22;37835;53.256;6.456;2023-04-03T04:07:22;0.30;99.90
51765;DHT22;37835;53.256;6.456;2023-04-03T04:09:47;0.30;99.90
51765;DHT22;37835;53.256;6.456;2023-04-03T04:12:13;0.30;99.90
51765;DHT22;37835;53.256;6.456;2023-04-03T04:14:38;-0.70;99.90
51765;DHT22;37835;53.256;6.456;2023-04-03T04:17:04;0.50;99.90
51765;DHT22;37835;53.256;6.456;2023-04-03T04:19:30;0.20;99.90
51765;DHT22;37835;53.256;6.456;2023-04-03T04:21:55;0.30;99.90
51765;DHT22;37835;53.256;6.456;2023-04-03T04:24:21;0.20;99.90
51765;DHT22;37835;53.256;6.456;2023-04-03T04:26:48;0.20;99.90
51765;DHT22;37835;53.256;6.456;2023-04-03T04:29:13;0.50;99.90
51765;DHT22;37835;53.256;6.456;2023-04-03T04:31:39;0.20;99.90
51765;DHT22;37835;53.256;6.456;2023-04-03T04:34:05;0.10;99.90
51765;DHT22;37835;53.256;6.456;2023-04-03T04:36:31;0.10;99.90
51765;DHT22;37835;53.256;6.456;2023-04-03T04:38:56;0.10;99.90
51765;DHT22;37835;53.256;6.456;2023-04-03T04:41:23;0.10;99.90
51765;DHT22;37835;53.256;6.456;2023-04-03T04:43:51;0.10;99.90
51765;DHT22;37835;53.256;6.456;2023-04-03T04:46:17;0.20;99.90
51765;DHT22;37835;53.256;6.456;2023-04-03T04:48:43;0.00;99.90
51765;DHT22;37835;53.256;6.456;2023-04-03T04:51:09;-1.30;99.90
51765;DHT22;37835;53.256;6.456;2023-04-03T04:53:35;0.00;99.90
51765;DHT22;37835;53.256;6.456;2023-04-03T04:56:00;0.00;99.90
51765;DHT22;37835;53.256;6.456;2023-04-03T04:58:26;0.90;99.90
51765;DHT22;37835;53.256;6.456;2023-04-03T05:00:59;-0.10;99.90
51765;DHT22;37835;53.256;6.456;2023-04-03T05:03:25;-0.10;99.90
51765;DHT22;37835;53.256;6.456;2023-04-03T05:05:51;-0.10;99.90
51765;DHT22;37835;53.256;6.456;2023-04-03T05:08:16;-0.10;99.90
51765;DHT22;37835;53.256;6.456;2023-04-03T05:10:42;0.20;99.90
51765;DHT22;37835;53.256;6.456;2023-04-03T05:13:08;0.10;99.90
51765;DHT22;37835;53.256;6.456;2023-04-03T05:15:33;-0.10;99.90
51765;DHT22;37835;53.256;6.456;2023-04-03T05:17:59;-0.10;99.90
51765;DHT22;37835;53.256;6.456;2023-04-03T05:20:25;-0.10;99.90
51765;DHT22;37835;53.256;6.456;2023-04-03T05:22:50;-0.20;99.90
51765;DHT22;37835;53.256;6.456;2023-04-03T05:25:16;-0.20;99.90
51765;DHT22;37835;53.256;6.456;2023-04-03T05:27:41;-0.10;99.90
51765;DHT22;37835;53.256;6.456;2023-04-03T05:30:08;-0.20;99.90
51765;DHT22;37835;53.256;6.456;2023-04-03T05:32:33;-0.20;99.90
51765;DHT22;37835;53.256;6.456;2023-04-03T05:34:59;0.00;99.90
51765;DHT22;37835;53.256;6.456;2023-04-03T05:37:25;1.70;99.90
51765;DHT22;37835;53.256;6.456;2023-04-03T05:39:50;-0.20;99.90
51765;DHT22;37835;53.256;6.456;2023-04-03T05:42:19;-0.20;99.90
51765;DHT22;37835;53.256;6.456;2023-04-03T05:44:44;-0.10;99.90
51765;DHT22;37835;53.256;6.456;2023-04-03T05:47:12;-0.20;99.90
51765;DHT22;37835;53.256;6.456;2023-04-03T05:49:38;-0.20;99.90
51765;DHT22;37835;53.256;6.456;2023-04-03T05:52:11;-0.20;99.90
51765;DHT22;37835;53.256;6.456;2023-04-03T05:54:42;0.10;99.90
51765;DHT22;37835;53.256;6.456;2023-04-03T05:57:08;1.00;99.90
51765;DHT22;37835;53.256;6.456;2023-04-03T05:59:33;-0.20;99.90
51765;DHT22;37835;53.256;6.456;2023-04-03T06:01:59;0.10;99.90
51765;DHT22;37835;53.256;6.456;2023-04-03T06:04:24;-0.10;99.90
51765;DHT22;37835;53.256;6.456;2023-04-03T06:06:55;1.50;99.90
51765;DHT22;37835;53.256;6.456;2023-04-03T06:09:23;-0.10;99.90
51765;DHT22;37835;53.256;6.456;2023-04-03T06:11:48;-1.00;99.90
51765;DHT22;37835;53.256;6.456;2023-04-03T06:14:14;0.00;99.90
51765;DHT22;37835;53.256;6.456;2023-04-03T06:16:40;-1.70;99.90
51765;DHT22;37835;53.256;6.456;2023-04-03T06:19:07;0.00;99.90
51765;DHT22;37835;53.256;6.456;2023-04-03T06:21:33;0.10;99.90
51765;DHT22;37835;53.256;6.456;2023-04-03T06:23:59;0.10;99.90
51765;DHT22;37835;53.256;6.456;2023-04-03T06:26:24;-0.30;99.90
51765;DHT22;37835;53.256;6.456;2023-04-03T06:28:50;2.30;99.90
51765;DHT22;37835;53.256;6.456;2023-04-03T06:31:16;0.20;99.90
51765;DHT22;37835;53.256;6.456;2023-04-03T06:33:42;0.30;99.90
51765;DHT22;37835;53.256;6.456;2023-04-03T06:36:09;0.50;99.90
51765;DHT22;37835;53.256;6.456;2023-04-03T06:38:35;0.40;99.90
51765;DHT22;37835;53.256;6.456;2023-04-03T06:41:00;0.40;99.90
51765;DHT22;37835;53.256;6.456;2023-04-03T06:43:26;0.60;99.90
51765;DHT22;37835;53.256;6.456;2023-04-03T06:45:52;0.50;99.90
51765;DHT22;37835;53.256;6.456;2023-04-03T06:48:18;0.50;99.90
51765;DHT22;37835;53.256;6.456;2023-04-03T06:50:43;2.40;99.90
51765;DHT22;37835;53.256;6.456;2023-04-03T06:53:09;0.60;99.90
51765;DHT22;37835;53.256;6.456;2023-04-03T06:55:35;0.20;99.90
51765;DHT22;37835;53.256;6.456;2023-04-03T06:58:01;0.70;99.90
51765;DHT22;37835;53.256;6.456;2023-04-03T07:00:27;0.80;99.90
51765;DHT22;37835;53.256;6.456;2023-04-03T07:02:53;0.80;99.90
51765;DHT22;37835;53.256;6.456;2023-04-03T07:05:18;0.90;99.90
51765;DHT22;37835;53.256;6.456;2023-04-03T07:07:44;0.90;99.90
51765;DHT22;37835;53.256;6.456;2023-04-03T07:10:10;-0.30;99.90
51765;DHT22;37835;53.256;6.456;2023-04-03T07:12:36;1.00;99.90
51765;DHT22;37835;53.256;6.456;2023-04-03T07:15:04;1.10;99.90
51765;DHT22;37835;53.256;6.456;2023-04-03T07:17:30;1.20;99.90
51765;DHT22;37835;53.256;6.456;2023-04-03T07:19:56;1.30;99.90
51765;DHT22;37835;53.256;6.456;2023-04-03T07:22:22;1.30;99.90
51765;DHT22;37835;53.256;6.456;2023-04-03T07:24:47;1.40;99.90
51765;DHT22;37835;53.256;6.456;2023-04-03T07:27:13;1.50;99.90
51765;DHT22;37835;53.256;6.456;2023-04-03T07:29:39;1.60;99.90
51765;DHT22;37835;53.256;6.456;2023-04-03T07:32:05;1.70;99.90
51765;DHT22;37835;53.256;6.456;2023-04-03T07:34:32;1.80;99.90
51765;DHT22;37835;53.256;6.456;2023-04-03T07:36:58;1.80;99.90
51765;DHT22;37835;53.256;6.456;2023-04-03T07:39:24;2.00;99.90
51765;DHT22;37835;53.256;6.456;2023-04-03T07:41:50;2.10;99.90
51765;DHT22;37835;53.256;6.456;2023-04-03T07:44:17;1.30;99.90
51765;DHT22;37835;53.256;6.456;2023-04-03T07:46:43;2.40;99.90
51765;DHT22;37835;53.256;6.456;2023-04-03T07:49:08;2.50;99.90
51765;DHT22;37835;53.256;6.456;2023-04-03T07:51:34;2.60;99.90
51765;DHT22;37835;53.256;6.456;2023-04-03T07:54:01;2.80;99.90
51765;DHT22;37835;53.256;6.456;2023-04-03T07:56:26;2.90;99.90
51765;DHT22;37835;53.256;6.456;2023-04-03T07:58:52;3.00;99.90
51765;DHT22;37835;53.256;6.456;2023-04-03T08:01:19;3.20;99.90
51765;DHT22;37835;53.256;6.456;2023-04-03T08:03:44;3.40;99.90
51765;DHT22;37835;53.256;6.456;2023-04-03T08:06:10;3.50;99.90
51765;DHT22;37835;53.256;6.456;2023-04-03T08:08:36;3.60;99.90
51765;DHT22;37835;53.256;6.456;2023-04-03T08:13:30;4.00;99.90
51765;DHT22;37835;53.256;6.456;2023-04-03T08:15:56;4.00;99.90
51765;DHT22;37835;53.256;6.456;2023-04-03T08:18:23;4.20;99.90
51765;DHT22;37835;53.256;6.456;2023-04-03T08:20:51;4.30;99.90
51765;DHT22;37835;53.256;6.456;2023-04-03T08:23:17;4.40;99.90
51765;DHT22;37835;53.256;6.456;2023-04-03T08:25:44;4.50;99.90
51765;DHT22;37835;53.256;6.456;2023-04-03T08:28:11;4.60;99.90
51765;DHT22;37835;53.256;6.456;2023-04-03T08:30:41;4.70;99.90
51765;DHT22;37835;53.256;6.456;2023-04-03T08:33:08;4.80;99.90
51765;DHT22;37835;53.256;6.456;2023-04-03T08:35:38;4.90;99.90
51765;DHT22;37835;53.256;6.456;2023-04-03T08:38:04;4.90;99.90
51765;DHT22;37835;53.256;6.456;2023-04-03T08:40:30;5.00;99.90
51765;DHT22;37835;53.256;6.456;2023-04-03T08:48:06;5.40;99.90
51765;DHT22;37835;53.256;6.456;2023-04-03T08:50:44;5.40;99.90
51765;DHT22;37835;53.256;6.456;2023-04-03T08:53:15;5.60;99.90
51765;DHT22;37835;53.256;6.456;2023-04-03T08:55:51;5.60;99.90
51765;DHT22;37835;53.256;6.456;2023-04-03T09:00:53;5.80;99.90
51765;DHT22;37835;53.256;6.456;2023-04-03T09:03:20;5.90;99.90
51765;DHT22;37835;53.256;6.456;2023-04-03T09:08:47;6.10;99.90
51765;DHT22;37835;53.256;6.456;2023-04-03T09:11:42;6.20;99.90
51765;DHT22;37835;53.256;6.456;2023-04-03T09:15:12;6.30;99.90
51765;DHT22;37835;53.256;6.456;2023-04-03T09:20:36;6.50;99.90
51765;DHT22;37835;53.256;6.456;2023-04-03T09:26:19;6.70;99.90
51765;DHT22;37835;53.256;6.456;2023-04-03T09:28:46;6.90;99.90
51765;DHT22;37835;53.256;6.456;2023-04-03T09:31:24;6.90;99.90
51765;DHT22;37835;53.256;6.456;2023-04-03T09:34:17;7.00;99.90
51765;DHT22;37835;53.256;6.456;2023-04-03T09:36:46;7.10;99.90
51765;DHT22;37835;53.256;6.456;2023-04-03T09:39:20;7.20;99.90
51765;DHT22;37835;53.256;6.456;2023-04-03T09:42:04;7.30;99.90
51765;DHT22;37835;53.256;6.456;2023-04-03T09:44:35;7.40;99.90
51765;DHT22;37835;53.256;6.456;2023-04-03T09:47:29;7.40;99.90
51765;DHT22;37835;53.256;6.456;2023-04-03T09:52:40;7.60;99.90
51765;DHT22;37835;53.256;6.456;2023-04-03T09:55:17;7.60;99.90
51765;DHT22;37835;53.256;6.456;2023-04-03T09:57:46;7.60;99.90
51765;DHT22;37835;53.256;6.456;2023-04-03T10:00:30;7.60;99.90
51765;DHT22;37835;53.256;6.456;2023-04-03T10:02:58;7.70;99.90
51765;DHT22;37835;53.256;6.456;2023-04-03T10:05:41;7.80;99.90
51765;DHT22;37835;53.256;6.456;2023-04-03T10:10:39;7.80;99.90
51765;DHT22;37835;53.256;6.456;2023-04-03T10:13:15;7.90;99.90
51765;DHT22;37835;53.256;6.456;2023-04-03T10:15:46;8.00;99.90
51765;DHT22;37835;53.256;6.456;2023-04-03T10:18:36;8.00;99.90
51765;DHT22;37835;53.256;6.456;2023-04-03T10:21:15;8.10;99.90
51765;DHT22;37835;53.256;6.456;2023-04-03T10:23:44;8.10;99.90
51765;DHT22;37835;53.256;6.456;2023-04-03T10:29:20;8.30;99.90
51765;DHT22;37835;53.256;6.456;2023-04-03T10:31:58;8.40;99.90
51765;DHT22;37835;53.256;6.456;2023-04-03T10:34:33;8.60;99.90
51765;DHT22;37835;53.256;6.456;2023-04-03T10:37:29;8.60;99.90
51765;DHT22;37835;53.256;6.456;2023-04-03T10:42:58;8.70;99.90
51765;DHT22;37835;53.256;6.456;2023-04-03T10:45:30;8.70;99.90
51765;DHT22;37835;53.256;6.456;2023-04-03T10:50:43;8.80;99.90
51765;DHT22;37835;53.256;6.456;2023-04-03T10:53:39;8.90;99.90
51765;DHT22;37835;53.256;6.456;2023-04-03T10:58:41;9.00;99.90
51765;DHT22;37835;53.256;6.456;2023-04-03T11:01:18;9.00;99.90
51765;DHT22;37835;53.256;6.456;2023-04-03T11:03:48;9.10;99.90
51765;DHT22;37835;53.256;6.456;2023-04-03T11:06:16;9.10;99.90
51765;DHT22;37835;53.256;6.456;2023-04-03T11:09:07;9.10;99.90
51765;DHT22;37835;53.256;6.456;2023-04-03T11:11:39;9.20;99.90
51765;DHT22;37835;53.256;6.456;2023-04-03T11:14:26;9.20;99.90
51765;DHT22;37835;53.256;6.456;2023-04-03T11:19:48;9.20;99.90
51765;DHT22;37835;53.256;6.456;2023-04-03T11:22:30;9.30;99.90
51765;DHT22;37835;53.256;6.456;2023-04-03T11:25:24;9.40;99.80
51765;DHT22;37835;53.256;6.456;2023-04-03T11:28:02;9.40;99.50
51765;DHT22;37835;53.256;6.456;2023-04-03T11:36:07;9.50;98.90
51765;DHT22;37835;53.256;6.456;2023-04-03T11:38:37;9.60;99.20
51765;DHT22;37835;53.256;6.456;2023-04-03T11:41:07;9.70;99.20
51765;DHT22;37835;53.256;6.456;2023-04-03T11:43:34;9.80;99.00
51765;DHT22;37835;53.256;6.456;2023-04-03T11:46:06;9.80;98.40
51765;DHT22;37835;53.256;6.456;2023-04-03T11:53:39;10.00;98.00
51765;DHT22;37835;53.256;6.456;2023-04-03T11:59:22;10.10;98.30
51765;DHT22;37835;53.256;6.456;2023-04-03T12:01:53;10.20;98.30
51765;DHT22;37835;53.256;6.456;2023-04-03T12:04:24;10.20;98.20
51765;DHT22;37835;53.256;6.456;2023-04-03T12:11:47;10.40;98.00
51765;DHT22;37835;53.256;6.456;2023-04-03T12:14:15;10.50;98.20
51765;DHT22;37835;53.256;6.456;2023-04-03T12:16:45;10.60;97.70
51765;DHT22;37835;53.256;6.456;2023-04-03T12:19:32;10.70;97.60
51765;DHT22;37835;53.256;6.456;2023-04-03T12:24:32;10.80;97.20
51765;DHT22;37835;53.256;6.456;2023-04-03T12:43:41;11.00;95.10
51765;DHT22;37835;53.256;6.456;2023-04-03T12:48:57;11.00;95.80
51765;DHT22;37835;53.256;6.456;2023-04-03T12:51:42;11.10;95.30
51765;DHT22;37835;53.256;6.456;2023-04-03T12:54:30;11.10;95.20
51765;DHT22;37835;53.256;6.456;2023-04-03T12:59:41;11.30;95.50
51765;DHT22;37835;53.256;6.456;2023-04-03T13:04:46;11.40;95.40
51765;DHT22;37835;53.256;6.456;2023-04-03T13:07:28;11.40;94.90
51765;DHT22;37835;53.256;6.456;2023-04-03T13:12:29;11.30;93.90
51765;DHT22;37835;53.256;6.456;2023-04-03T13:14:58;11.30;93.90
51765;DHT22;37835;53.256;6.456;2023-04-03T13:17:25;11.30;94.10
51765;DHT22;37835;53.256;6.456;2023-04-03T13:19:51;11.30;94.00
51765;DHT22;37835;53.256;6.456;2023-04-03T13:24:49;11.40;94.20
51765;DHT22;37835;53.256;6.456;2023-04-03T13:27:16;11.50;94.60
51765;DHT22;37835;53.256;6.456;2023-04-03T13:29:42;11.50;94.30
51765;DHT22;37835;53.256;6.456;2023-04-03T13:32:18;11.60;94.30
51765;DHT22;37835;53.256;6.456;2023-04-03T13:34:45;11.70;94.00
51765;DHT22;37835;53.256;6.456;2023-04-03T13:37:32;11.60;93.50
51765;DHT22;37835;53.256;6.456;2023-04-03T13:42:35;11.60;93.10
51765;DHT22;37835;53.256;6.456;2023-04-03T13:47:40;11.60;93.30
51765;DHT22;37835;53.256;6.456;2023-04-03T13:50:19;11.60;93.40
51765;DHT22;37835;53.256;6.456;2023-04-03T13:52:55;11.60;93.60
51765;DHT22;37835;53.256;6.456;2023-04-03T13:55:30;11.60;93.80
51765;DHT22;37835;53.256;6.456;2023-04-03T13:57:57;11.70;94.40
51765;DHT22;37835;53.256;6.456;2023-04-03T14:00:39;11.70;94.70
51765;DHT22;37835;53.256;6.456;2023-04-03T14:03:32;11.80;95.00
51765;DHT22;37835;53.256;6.456;2023-04-03T14:05:59;11.80;94.80
51765;DHT22;37835;53.256;6.456;2023-04-03T14:08:26;11.80;95.20
51765;DHT22;37835;53.256;6.456;2023-04-03T14:10:53;11.80;95.10
51765;DHT22;37835;53.256;6.456;2023-04-03T14:13:20;11.80;95.10
51765;DHT22;37835;53.256;6.456;2023-04-03T14:15:47;11.80;95.30
51765;DHT22;37835;53.256;6.456;2023-04-03T14:18:16;11.80;95.50
51765;DHT22;37835;53.256;6.456;2023-04-03T14:20:44;11.80;95.90
51765;DHT22;37835;53.256;6.456;2023-04-03T14:23:10;11.70;96.10
51765;DHT22;37835;53.256;6.456;2023-04-03T14:25:36;11.70;96.40
51765;DHT22;37835;53.256;6.456;2023-04-03T14:28:22;11.70;96.10
51765;DHT22;37835;53.256;6.456;2023-04-03T14:30:49;11.70;95.90
51765;DHT22;37835;53.256;6.456;2023-04-03T14:33:18;11.60;95.80
51765;DHT22;37835;53.256;6.456;2023-04-03T14:35:44;11.50;95.80
51765;DHT22;37835;53.256;6.456;2023-04-03T14:38:23;11.60;95.90
51765;DHT22;37835;53.256;6.456;2023-04-03T14:40:49;11.50;95.70
51765;DHT22;37835;53.256;6.456;2023-04-03T14:43:15;11.50;95.90
51765;DHT22;37835;53.256;6.456;2023-04-03T14:45:41;11.50;96.10
51765;DHT22;37835;53.256;6.456;2023-04-03T14:48:15;11.40;96.20
51765;DHT22;37835;53.256;6.456;2023-04-03T14:50:41;11.40;96.40
51765;DHT22;37835;53.256;6.456;2023-04-03T14:53:07;11.30;96.80
51765;DHT22;37835;53.256;6.456;2023-04-03T14:55:33;11.30;97.00
51765;DHT22;37835;53.256;6.456;2023-04-03T14:57:58;11.40;96.90
51765;DHT22;37835;53.256;6.456;2023-04-03T15:00:24;11.40;97.10
51765;DHT22;37835;53.256;6.456;2023-04-03T15:02:50;11.30;97.20
51765;DHT22;37835;53.256;6.456;2023-04-03T15:05:16;11.40;97.00
51765;DHT22;37835;53.256;6.456;2023-04-03T15:07:49;11.40;97.20
51765;DHT22;37835;53.256;6.456;2023-04-03T15:10:19;11.40;97.20
51765;DHT22;37835;53.256;6.456;2023-04-03T15:12:45;11.40;97.20
51765;DHT22;37835;53.256;6.456;2023-04-03T15:15:12;11.40;97.20
51765;DHT22;37835;53.256;6.456;2023-04-03T15:17:38;11.30;96.70
51765;DHT22;37835;53.256;6.456;2023-04-03T15:20:12;11.30;96.20
51765;DHT22;37835;53.256;6.456;2023-04-03T15:22:38;11.10;96.00
51765;DHT22;37835;53.256;6.456;2023-04-03T15:25:04;11.00;96.00
51765;DHT22;37835;53.256;6.456;2023-04-03T15:27:30;10.90;95.90
51765;DHT22;37835;53.256;6.456;2023-04-03T15:29:56;10.80;95.80
51765;DHT22;37835;53.256;6.456;2023-04-03T15:32:24;10.80;95.70
51765;DHT22;37835;53.256;6.456;2023-04-03T15:34:50;10.80;95.50
51765;DHT22;37835;53.256;6.456;2023-04-03T15:37:15;10.00;95.50
51765;DHT22;37835;53.256;6.456;2023-04-03T15:39:41;10.80;95.70
51765;DHT22;37835;53.256;6.456;2023-04-03T15:42:06;10.70;95.90
51765;DHT22;37835;53.256;6.456;2023-04-03T15:44:34;10.70;95.90
51765;DHT22;37835;53.256;6.456;2023-04-03T15:47:02;10.70;96.10
51765;DHT22;37835;53.256;6.456;2023-04-03T15:49:28;10.70;96.00
51765;DHT22;37835;53.256;6.456;2023-04-03T15:51:53;10.60;96.20
51765;DHT22;37835;53.256;6.456;2023-04-03T15:54:19;10.60;96.30
51765;DHT22;37835;53.256;6.456;2023-04-03T15:56:45;10.60;96.50
51765;DHT22;37835;53.256;6.456;2023-04-03T15:59:10;10.60;96.60
51765;DHT22;37835;53.256;6.456;2023-04-03T16:01:37;10.60;96.60
51765;DHT22;37835;53.256;6.456;2023-04-03T16:04:05;10.50;96.70
51765;DHT22;37835;53.256;6.456;2023-04-03T16:06:32;10.40;96.70
51765;DHT22;37835;53.256;6.456;2023-04-03T16:08:59;10.30;96.90
51765;DHT22;37835;53.256;6.456;2023-04-03T16:11:26;10.30;97.10
51765;DHT22;37835;53.256;6.456;2023-04-03T16:13:53;10.20;97.40
51765;DHT22;37835;53.256;6.456;2023-04-03T16:16:18;10.20;97.70
51765;DHT22;37835;53.256;6.456;2023-04-03T16:18:46;10.20;97.80
51765;DHT22;37835;53.256;6.456;2023-04-03T16:21:13;10.10;98.00
51765;DHT22;37835;53.256;6.456;2023-04-03T16:23:40;10.10;98.40
51765;DHT22;37835;53.256;6.456;2023-04-03T16:26:06;10.10;98.40
51765;DHT22;37835;53.256;6.456;2023-04-03T16:28:32;10.10;98.20
51765;DHT22;37835;53.256;6.456;2023-04-03T16:30:57;10.00;98.00
51765;DHT22;37835;53.256;6.456;2023-04-03T16:33:24;10.00;98.10
51765;DHT22;37835;53.256;6.456;2023-04-03T16:35:50;10.00;98.10
51765;DHT22;37835;53.256;6.456;2023-04-03T16:38:16;10.00;98.20
51765;DHT22;37835;53.256;6.456;2023-04-03T16:40:41;9.90;98.20
51765;DHT22;37835;53.256;6.456;2023-04-03T16:43:08;9.80;98.20
51765;DHT22;37835;53.256;6.456;2023-04-03T16:45:33;9.70;98.20
51765;DHT22;37835;53.256;6.456;2023-04-03T16:47:59;9.60;98.20
51765;DHT22;37835;53.256;6.456;2023-04-03T16:50:25;9.60;98.30
51765;DHT22;37835;53.256;6.456;2023-04-03T16:52:50;9.60;98.40
51765;DHT22;37835;53.256;6.456;2023-04-03T16:55:16;9.60;98.60
51765;DHT22;37835;53.256;6.456;2023-04-03T16:57:42;9.60;99.00
51765;DHT22;37835;53.256;6.456;2023-04-03T17:00:09;9.60;99.40
51765;DHT22;37835;53.256;6.456;2023-04-03T17:02:35;9.70;99.90
51765;DHT22;37835;53.256;6.456;2023-04-03T17:05:00;9.80;99.90
51765;DHT22;37835;53.256;6.456;2023-04-03T17:07:26;9.90;99.90
51765;DHT22;37835;53.256;6.456;2023-04-03T17:09:52;9.80;99.80
51765;DHT22;37835;53.256;6.456;2023-04-03T17:12:19;9.80;99.90
51765;DHT22;37835;53.256;6.456;2023-04-03T17:14:45;9.60;99.90
51765;DHT22;37835;53.256;6.456;2023-04-03T17:17:12;9.50;99.90
51765;DHT22;37835;53.256;6.456;2023-04-03T17:19:38;9.40;99.90
51765;DHT22;37835;53.256;6.456;2023-04-03T17:22:04;9.20;99.90
51765;DHT22;37835;53.256;6.456;2023-04-03T17:24:30;9.00;99.90
51765;DHT22;37835;53.256;6.456;2023-04-03T17:26:56;8.80;99.90